Ralston, Wyoming
Current Conditions -  °F | °C
As of 11:15 PM on Thursday 18 Dec 2014 (Local Time) from KPOY Reporting Station
Scattered Clouds Scattered Clouds  
Wind Chill:   Ceiling: Unl
Heat Index: 21°   Visibility: 10mi
Dew Point: 14°   Wind: 14mph
Humidity: 74%   Direction: 130°SE
Pressure: 29.99"   Gusts: NA
Location:  44.72°N, 108.87°W
Report Text: KPOY 190615Z AUTO 13012KT 10SM SCT120 M06/M10 A2999 RMK AO2
Loading
Personal Weather Stations






























Interactive Weather Map New forecast layout! Learn more

10-Day Weather Forecast

Advertisements
Track Severe Weather on mobile